createdAt,value
2019-06-07T00:02:18.770Z,10.43
2019-06-07T00:04:46.893Z,9.63
2019-06-07T00:07:16.965Z,9.77
2019-06-07T00:09:44.355Z,12.50
2019-06-07T00:12:14.075Z,11.93
2019-06-07T00:14:41.806Z,10.53
2019-06-07T00:17:12.529Z,9.87
2019-06-07T00:19:39.273Z,11.80
2019-06-07T00:22:16.595Z,15.47
2019-06-07T00:24:36.734Z,11.30
2019-06-07T00:27:04.791Z,12.03
2019-06-07T00:29:32.560Z,10.83
2019-06-07T00:32:00.375Z,10.70
2019-06-07T00:34:28.262Z,16.87
2019-06-07T00:36:56.187Z,11.07
2019-06-07T00:39:25.973Z,13.50
2019-06-07T00:41:53.616Z,11.80
2019-06-07T00:44:23.189Z,12.73
2019-06-07T00:46:51.072Z,13.90
2019-06-07T00:49:33.437Z,12.80
2019-06-07T00:51:51.654Z,15.70
2019-06-07T00:54:21.499Z,13.37
2019-06-07T00:56:47.897Z,13.43
2019-06-07T00:59:18.576Z,13.93
2019-06-07T01:01:45.354Z,13.27
2019-06-07T01:04:15.610Z,14.10
2019-06-07T01:06:42.793Z,12.27
2019-06-07T01:09:10.604Z,12.90
2019-06-07T01:11:38.362Z,12.43
2019-06-07T01:14:06.173Z,14.10
2019-06-07T01:16:55.447Z,14.20
2019-06-07T01:19:04.444Z,13.47
2019-06-07T01:21:32.270Z,12.70
2019-06-07T01:24:11.473Z,12.07
2019-06-07T01:26:30.542Z,12.47
2019-06-07T01:28:58.453Z,12.80
2019-06-07T01:31:28.516Z,13.37
2019-06-07T01:33:55.930Z,13.03
2019-06-07T01:36:27.500Z,13.17
2019-06-07T01:38:53.388Z,13.87
2019-06-07T01:41:23.659Z,12.60
2019-06-07T01:43:50.885Z,13.17
2019-06-07T01:46:20.598Z,13.50
2019-06-07T01:48:49.800Z,12.97
2019-06-07T01:51:18.932Z,13.87
2019-06-07T01:53:47.676Z,15.13
2019-06-07T01:56:18.390Z,13.60
2019-06-07T01:58:45.212Z,14.90
2019-06-07T02:01:13.013Z,14.40
2019-06-07T02:03:40.786Z,16.20
2019-06-07T02:06:10.415Z,15.17
2019-06-07T02:08:38.242Z,16.43
2019-06-07T02:11:06.045Z,13.90
2019-06-07T02:13:33.833Z,14.50
2019-06-07T02:16:01.640Z,17.03
2019-06-07T02:18:34.698Z,13.53
2019-06-07T02:21:00.973Z,13.03
2019-06-07T02:23:33.049Z,13.93
2019-06-07T02:25:58.475Z,12.17
2019-06-07T02:28:34.642Z,10.70
2019-06-07T02:30:59.992Z,12.07
2019-06-07T02:33:29.020Z,11.70
2019-06-07T02:35:55.469Z,13.87
2019-06-07T02:38:27.659Z,12.90
2019-06-07T02:40:52.946Z,12.77
2019-06-07T02:43:22.086Z,13.00
2019-06-07T02:45:49.913Z,11.10
2019-06-07T02:48:17.692Z,11.57
2019-06-07T02:50:45.657Z,11.77
2019-06-07T02:53:13.437Z,13.23
2019-06-07T02:56:32.860Z,13.17
2019-06-07T02:58:10.974Z,14.60
2019-06-07T03:01:05.664Z,14.83
2019-06-07T03:03:17.501Z,16.40
2019-06-07T03:05:46.068Z,17.10
2019-06-07T03:08:15.616Z,17.80
2019-06-07T03:10:46.433Z,17.37
2019-06-07T03:13:18.797Z,19.27
2019-06-07T03:15:50.327Z,29.30
2019-06-07T03:18:41.221Z,22.73
2019-06-07T03:21:13.239Z,22.03
2019-06-07T03:23:41.176Z,18.67
2019-06-07T03:26:08.946Z,24.03
2019-06-07T03:28:37.954Z,23.77
2019-06-07T03:31:06.616Z,19.73
2019-06-07T03:33:41.492Z,20.30
2019-06-07T03:36:22.669Z,31.23
2019-06-07T03:38:35.256Z,17.93
2019-06-07T03:41:04.049Z,17.40
2019-06-07T03:43:34.963Z,22.50
2019-06-07T03:46:01.511Z,19.13
2019-06-07T03:48:30.664Z,18.83
2019-06-07T03:51:04.578Z,26.73
2019-06-07T03:53:29.700Z,17.30
2019-06-07T03:55:58.411Z,19.20
2019-06-07T03:58:31.959Z,25.30
2019-06-07T04:00:57.136Z,22.10
2019-06-07T04:03:36.998Z,22.00
2019-06-07T04:05:55.252Z,23.10
2019-06-07T04:08:23.024Z,21.07
2019-06-07T04:10:59.865Z,24.13
2019-06-07T04:13:20.534Z,26.40
2019-06-07T04:15:48.531Z,37.07
2019-06-07T04:18:16.535Z,30.83
2019-06-07T04:20:44.368Z,24.40
2019-06-07T04:23:27.661Z,43.67
2019-06-07T04:25:42.614Z,27.47
2019-06-07T04:28:10.747Z,25.63
2019-06-07T04:30:42.669Z,28.13
2019-06-07T04:33:11.646Z,26.80
2019-06-07T04:35:42.540Z,27.50
2019-06-07T04:38:10.191Z,19.00
2019-06-07T04:40:39.969Z,28.17
2019-06-07T04:43:08.223Z,22.47
2019-06-07T04:45:41.849Z,19.60
2019-06-07T04:48:06.901Z,20.53
2019-06-07T04:50:38.278Z,21.93
2019-06-07T04:53:06.735Z,23.50
2019-06-07T04:55:36.619Z,25.63
2019-06-07T04:58:05.047Z,21.27
2019-06-07T05:00:49.699Z,41.23
2019-06-07T05:03:04.880Z,31.40
2019-06-07T05:05:34.549Z,18.40
2019-06-07T05:08:07.399Z,17.53
2019-06-07T05:10:35.179Z,24.30
2019-06-07T05:13:02.770Z,20.47
2019-06-07T05:15:32.259Z,23.97
2019-06-07T05:18:00.034Z,27.17
2019-06-07T05:20:27.869Z,21.97
2019-06-07T05:22:55.650Z,27.27
2019-06-07T05:25:23.439Z,25.13
2019-06-07T05:27:51.257Z,25.90
2019-06-07T05:33:05.204Z,24.93
2019-06-07T05:35:33.291Z,27.43
2019-06-07T05:38:02.614Z,24.23
2019-06-07T05:40:39.244Z,22.10
2019-06-07T05:43:07.254Z,22.00
2019-06-07T05:45:39.285Z,20.80
2019-06-07T05:48:07.393Z,20.17
2019-06-07T05:50:44.856Z,21.57
2019-06-07T05:53:05.964Z,20.83
2019-06-07T05:55:35.288Z,21.30
2019-06-07T05:58:03.270Z,21.20
2019-06-07T06:00:31.383Z,18.77
2019-06-07T06:03:05.408Z,20.73
2019-06-07T06:05:34.552Z,17.63
2019-06-07T06:07:58.596Z,15.30
2019-06-07T06:10:26.401Z,15.00
2019-06-07T06:12:54.176Z,14.83
2019-06-07T06:15:41.587Z,13.47
2019-06-07T06:17:53.735Z,14.10
2019-06-07T06:20:22.122Z,12.50
2019-06-07T06:22:51.139Z,12.43
2019-06-07T06:25:34.730Z,13.83
2019-06-07T06:28:09.918Z,17.87
2019-06-07T06:30:19.355Z,13.70
2019-06-07T06:32:54.970Z,12.97
2019-06-07T06:35:18.733Z,12.50
2019-06-07T06:37:52.737Z,13.13
2019-06-07T06:40:16.528Z,12.30
2019-06-07T06:42:45.455Z,11.97
2019-06-07T06:45:16.349Z,14.60
2019-06-07T06:47:47.707Z,13.43
2019-06-07T06:50:13.937Z,14.50
2019-06-07T06:52:45.133Z,14.63
2019-06-07T06:55:11.740Z,15.40
2019-06-07T06:57:41.476Z,12.77
2019-06-07T07:00:10.491Z,12.80
2019-06-07T07:03:27.041Z,11.50
2019-06-07T07:05:09.032Z,10.63
2019-06-07T07:07:36.811Z,11.23
2019-06-07T07:10:06.217Z,10.90
2019-06-07T07:12:33.982Z,9.33
2019-06-07T07:15:01.803Z,8.83
2019-06-07T07:17:47.786Z,8.70
2019-06-07T07:19:59.429Z,10.50
2019-06-07T07:22:27.208Z,9.83
2019-06-07T07:24:55.109Z,8.67
2019-06-07T07:27:22.979Z,11.30
2019-06-07T07:30:10.217Z,12.50
2019-06-07T07:32:20.531Z,11.20
2019-06-07T07:34:51.481Z,11.70
2019-06-07T07:37:17.974Z,10.30
2019-06-07T07:39:48.680Z,11.40
2019-06-07T07:42:21.334Z,11.20
2019-06-07T07:44:47.188Z,10.47
2019-06-07T07:47:15.031Z,10.40
2019-06-07T07:49:44.704Z,9.97
2019-06-07T07:52:12.464Z,11.07
2019-06-07T07:54:40.244Z,16.33
2019-06-07T07:57:08.027Z,10.53
2019-06-07T07:59:44.013Z,11.07
2019-06-07T08:02:05.554Z,7.97
2019-06-07T08:05:12.928Z,8.97
2019-06-07T08:07:03.165Z,10.40
2019-06-07T08:09:30.971Z,7.70
2019-06-07T08:12:00.720Z,7.83
2019-06-07T08:14:28.470Z,10.10
2019-06-07T08:16:57.862Z,7.40
2019-06-07T08:19:25.974Z,7.67
2019-06-07T08:21:55.674Z,9.13
2019-06-07T08:24:23.428Z,7.43
2019-06-07T08:27:13.036Z,8.07
2019-06-07T08:29:20.975Z,6.77
2019-06-07T08:31:50.831Z,9.70
2019-06-07T08:34:18.562Z,6.03
2019-06-07T08:36:46.348Z,5.70
2019-06-07T08:39:14.164Z,6.70
2019-06-07T08:41:54.085Z,7.13
2019-06-07T08:44:23.206Z,7.20
2019-06-07T08:46:41.419Z,5.90
2019-06-07T08:49:09.285Z,6.33
2019-06-07T08:52:03.012Z,5.73
2019-06-07T08:54:26.281Z,8.53
2019-06-07T08:57:06.652Z,6.73
2019-06-07T08:59:23.849Z,5.93
2019-06-07T09:01:53.772Z,5.47
2019-06-07T09:04:21.426Z,5.77
2019-06-07T09:07:18.123Z,6.83
2019-06-07T09:09:19.235Z,6.97
2019-06-07T09:11:47.108Z,6.33
2019-06-07T09:14:14.893Z,5.50
2019-06-07T09:16:42.736Z,4.67
2019-06-07T09:19:11.332Z,3.67
2019-06-07T09:21:40.380Z,4.53
2019-06-07T09:24:11.487Z,4.50
2019-06-07T09:26:37.912Z,3.77
2019-06-07T09:29:09.443Z,6.30
2019-06-07T09:31:51.889Z,5.90
2019-06-07T09:34:13.725Z,5.50
2019-06-07T09:36:34.884Z,5.90
2019-06-07T09:39:08.303Z,5.03
2019-06-07T09:41:47.328Z,4.97
2019-06-07T09:44:21.326Z,5.10
2019-06-07T09:46:34.678Z,4.53
2019-06-07T09:49:18.750Z,4.37
2019-06-07T09:51:32.294Z,4.87
2019-06-07T09:54:01.233Z,5.10
2019-06-07T09:56:29.897Z,5.03
2019-06-07T09:58:59.488Z,4.57
2019-06-07T10:01:27.464Z,4.30
2019-06-07T10:03:55.276Z,4.30
2019-06-07T10:06:23.085Z,5.97
2019-06-07T10:11:20.647Z,5.37
2019-06-07T10:13:48.446Z,4.40
2019-06-07T10:16:16.277Z,4.10
2019-06-07T10:18:44.051Z,7.20
2019-06-07T10:21:15.008Z,4.73
2019-06-07T10:23:41.924Z,3.60
2019-06-07T10:26:10.145Z,4.40
2019-06-07T10:28:38.122Z,5.13
2019-06-07T10:31:07.799Z,6.03
2019-06-07T10:33:35.647Z,5.27
2019-06-07T10:36:04.482Z,4.47
2019-06-07T10:38:32.371Z,6.90
2019-06-07T10:41:00.791Z,4.70
2019-06-07T10:43:28.841Z,8.20
2019-06-07T10:45:56.607Z,4.03
2019-06-07T10:48:25.189Z,4.20
2019-06-07T10:50:53.082Z,4.57
2019-06-07T10:53:20.906Z,4.80
2019-06-07T10:55:48.727Z,4.60
2019-06-07T10:58:16.521Z,4.80
2019-06-07T11:00:44.303Z,5.80
2019-06-07T11:03:12.123Z,4.77
2019-06-07T11:05:41.445Z,5.07
2019-06-07T11:08:10.271Z,5.30
2019-06-07T11:10:38.366Z,5.40
2019-06-07T11:13:06.178Z,5.20
2019-06-07T11:15:33.993Z,4.50
2019-06-07T11:18:01.910Z,4.80
2019-06-07T11:20:29.827Z,5.10
2019-06-07T11:22:57.598Z,4.37
2019-06-07T11:25:25.411Z,6.40
2019-06-07T11:27:53.296Z,5.40
2019-06-07T11:30:21.143Z,5.53
2019-06-07T11:32:49.004Z,5.40
2019-06-07T11:35:17.151Z,6.27
2019-06-07T11:37:44.957Z,5.97
2019-06-07T11:40:35.532Z,5.73
2019-06-07T11:42:42.601Z,3.97
2019-06-07T11:45:12.715Z,5.07
2019-06-07T11:47:40.359Z,4.97
2019-06-07T11:50:11.589Z,6.77
2019-06-07T11:52:39.829Z,5.37
2019-06-07T11:55:08.994Z,4.90
2019-06-07T11:57:37.114Z,4.53
2019-06-07T12:00:09.376Z,4.70
2019-06-07T12:02:37.363Z,5.40
2019-06-07T12:05:05.260Z,4.40
2019-06-07T12:07:33.058Z,5.30
2019-06-07T12:10:00.862Z,7.03
2019-06-07T12:12:28.723Z,4.60
2019-06-07T12:14:56.471Z,4.63
2019-06-07T12:17:24.383Z,4.03
2019-06-07T12:19:55.070Z,5.80
2019-06-07T12:22:22.909Z,5.60
2019-06-07T12:24:50.771Z,5.17
2019-06-07T12:27:18.903Z,5.07
2019-06-07T12:29:46.673Z,5.10
2019-06-07T12:32:15.380Z,5.10
2019-06-07T12:34:43.327Z,5.60
2019-06-07T12:37:11.771Z,5.07
2019-06-07T12:39:39.908Z,5.70
2019-06-07T12:42:07.717Z,5.77
2019-06-07T12:44:35.480Z,5.57
2019-06-07T12:47:03.269Z,5.27
2019-06-07T12:49:31.056Z,5.63
2019-06-07T12:51:58.879Z,5.80
2019-06-07T12:54:26.690Z,6.30
2019-06-07T12:56:54.571Z,6.17
2019-06-07T12:59:22.784Z,5.37
2019-06-07T13:01:51.782Z,5.77
2019-06-07T13:04:20.529Z,5.50
2019-06-07T13:06:48.414Z,6.13
2019-06-07T13:09:17.428Z,5.60
2019-06-07T13:11:45.684Z,5.73
2019-06-07T13:14:13.495Z,5.60
2019-06-07T13:16:41.324Z,5.63
2019-06-07T13:19:09.134Z,5.60
2019-06-07T13:21:37.057Z,5.50
2019-06-07T13:24:04.889Z,5.77
2019-06-07T13:26:35.445Z,5.20
2019-06-07T13:29:03.781Z,6.13
2019-06-07T13:31:31.557Z,7.90
2019-06-07T13:33:59.400Z,5.67
2019-06-07T13:36:28.260Z,5.60
2019-06-07T13:38:56.535Z,5.33
2019-06-07T13:41:36.542Z,11.30
2019-06-07T13:43:54.058Z,6.93
2019-06-07T13:46:23.132Z,4.53
2019-06-07T13:48:51.248Z,6.07
2019-06-07T13:51:21.174Z,5.97
2019-06-07T13:53:48.932Z,5.93
2019-06-07T13:56:17.771Z,4.90
2019-06-07T13:58:45.806Z,5.73
2019-06-07T14:01:13.634Z,5.73
2019-06-07T14:03:41.426Z,5.87
2019-06-07T14:06:09.259Z,5.77
2019-06-07T14:08:37.164Z,5.97
2019-06-07T14:11:05.017Z,5.37
2019-06-07T14:13:32.829Z,6.10
2019-06-07T14:16:00.658Z,5.53
2019-06-07T14:18:28.767Z,5.83
2019-06-07T14:20:58.921Z,5.83
2019-06-07T14:23:43.721Z,6.20
2019-06-07T14:25:56.264Z,6.13
2019-06-07T14:28:27.718Z,6.43
2019-06-07T14:30:53.863Z,6.20
2019-06-07T14:33:23.621Z,5.67
2019-06-07T14:35:54.795Z,6.17
2019-06-07T14:38:23.162Z,5.80
2019-06-07T14:40:50.979Z,5.43
2019-06-07T14:43:19.167Z,5.80
2019-06-07T14:45:47.020Z,5.20
2019-06-07T14:48:14.858Z,4.53
2019-06-07T14:50:42.690Z,5.20
2019-06-07T14:53:10.544Z,5.33
2019-06-07T14:55:38.308Z,5.80
2019-06-07T14:58:06.146Z,4.47
2019-06-07T15:00:43.095Z,6.87
2019-06-07T15:03:11.185Z,6.90
2019-06-07T15:05:40.505Z,5.60
2019-06-07T15:08:08.576Z,6.03
2019-06-07T15:10:36.365Z,5.60
2019-06-07T15:13:04.333Z,7.80
2019-06-07T15:15:32.743Z,9.47
2019-06-07T15:18:00.855Z,7.67
2019-06-07T15:20:30.301Z,7.57
2019-06-07T15:22:58.371Z,7.30
2019-06-07T15:25:27.067Z,27.43
2019-06-07T15:27:55.056Z,15.80
2019-06-07T15:30:22.890Z,6.10
2019-06-07T15:32:50.722Z,94.00
2019-06-07T15:35:18.506Z,18.87
2019-06-07T15:37:48.098Z,10.63
2019-06-07T15:40:16.426Z,16.30
2019-06-07T15:42:52.369Z,18.53
2019-06-07T15:45:14.023Z,16.87
2019-06-07T15:47:41.804Z,23.13
2019-06-07T15:50:10.520Z,16.57
2019-06-07T15:52:40.258Z,27.43
2019-06-07T15:55:09.992Z,6.60
2019-06-07T15:57:39.325Z,16.17
2019-06-07T16:00:10.903Z,9.00
2019-06-07T16:02:39.745Z,12.57
2019-06-07T16:05:07.850Z,10.33
2019-06-07T16:07:36.241Z,10.30
2019-06-07T16:10:05.563Z,8.73
2019-06-07T16:12:34.536Z,9.10
2019-06-07T16:15:05.396Z,24.77
2019-06-07T16:17:33.305Z,11.30
2019-06-07T16:20:01.131Z,13.40
2019-06-07T16:22:28.920Z,9.67
2019-06-07T16:24:56.742Z,18.63
2019-06-07T16:27:24.586Z,10.63
2019-06-07T16:29:52.465Z,16.30
2019-06-07T16:32:20.269Z,15.27
2019-06-07T16:34:48.170Z,6.97
2019-06-07T16:37:16.128Z,8.17
2019-06-07T16:39:44.785Z,9.60
2019-06-07T16:42:12.816Z,6.87
2019-06-07T16:44:40.750Z,6.80
2019-06-07T16:47:08.649Z,9.00
2019-06-07T16:49:36.756Z,6.10
2019-06-07T16:52:04.967Z,6.30
2019-06-07T16:54:35.534Z,6.07
2019-06-07T16:57:02.587Z,8.80
2019-06-07T16:59:30.361Z,5.67
2019-06-07T17:01:58.312Z,5.67
2019-06-07T17:04:26.227Z,9.20
2019-06-07T17:06:54.094Z,9.23
2019-06-07T17:09:21.927Z,10.50
2019-06-07T17:11:49.965Z,8.00
2019-06-07T17:14:17.768Z,5.70
2019-06-07T17:16:46.159Z,6.60
2019-06-07T17:19:15.293Z,7.40
2019-06-07T17:21:43.376Z,8.50
2019-06-07T17:24:11.384Z,7.10
2019-06-07T17:26:39.445Z,7.97
2019-06-07T17:29:07.421Z,8.67
2019-06-07T17:31:35.229Z,8.33
2019-06-07T17:34:03.044Z,7.80
2019-06-07T17:36:30.988Z,7.20
2019-06-07T17:38:58.792Z,5.27
2019-06-07T17:41:26.653Z,5.23
2019-06-07T17:43:59.781Z,7.40
2019-06-07T17:46:24.230Z,8.23
2019-06-07T17:48:52.065Z,10.20
2019-06-07T17:51:19.926Z,6.73
2019-06-07T17:53:47.859Z,7.40
2019-06-07T17:56:15.679Z,8.43
2019-06-07T17:58:44.324Z,2.60
2019-06-07T18:01:12.163Z,2.70
2019-06-07T18:03:39.980Z,3.97
2019-06-07T18:06:07.823Z,3.73
2019-06-07T18:08:35.739Z,1.13
2019-06-07T18:11:03.577Z,8.47
2019-06-07T18:13:31.907Z,4.20
2019-06-07T18:16:00.109Z,3.20
2019-06-07T18:18:28.223Z,6.53
2019-06-07T18:20:56.278Z,4.60
2019-06-07T18:23:24.246Z,2.03
2019-06-07T18:25:52.596Z,4.80
2019-06-07T18:28:20.908Z,3.37
2019-06-07T18:30:48.899Z,3.80
2019-06-07T18:33:16.991Z,2.37
2019-06-07T18:35:45.060Z,5.17
2019-06-07T18:38:12.986Z,2.90
2019-06-07T18:40:41.483Z,2.20
2019-06-07T18:43:09.306Z,2.03
2019-06-07T18:45:37.326Z,1.30
2019-06-07T18:48:05.667Z,2.10
2019-06-07T18:50:34.004Z,1.00
2019-06-07T18:53:01.972Z,3.40
2019-06-07T18:55:29.737Z,3.00
2019-06-07T18:57:58.533Z,7.40
2019-06-07T19:00:28.570Z,2.30
2019-06-07T19:02:56.380Z,2.27
2019-06-07T19:05:24.371Z,1.57
2019-06-07T19:07:52.580Z,2.87
2019-06-07T19:10:22.638Z,2.77
2019-06-07T19:12:50.916Z,1.93
2019-06-07T19:15:21.273Z,3.50
2019-06-07T19:17:49.761Z,1.57
2019-06-07T19:20:18.508Z,1.27
2019-06-07T19:22:46.312Z,2.83
2019-06-07T19:25:15.381Z,2.77
2019-06-07T19:27:43.165Z,5.20
2019-06-07T19:30:13.282Z,5.00
2019-06-07T19:32:41.106Z,2.00
2019-06-07T19:35:09.642Z,1.70
2019-06-07T19:37:37.439Z,2.43
2019-06-07T19:40:06.627Z,3.93
2019-06-07T19:42:34.430Z,2.10
2019-06-07T19:45:27.059Z,2.80
2019-06-07T19:47:32.082Z,2.70
2019-06-07T19:50:00.941Z,1.57
2019-06-07T19:52:28.852Z,3.70
2019-06-07T19:54:57.589Z,1.30
2019-06-07T19:57:25.629Z,2.53
2019-06-07T19:59:53.531Z,2.47
2019-06-07T20:02:21.365Z,2.90
2019-06-07T20:04:49.147Z,4.40
2019-06-07T20:07:16.971Z,3.00
2019-06-07T20:09:44.794Z,2.27
2019-06-07T20:12:12.636Z,2.73
2019-06-07T20:14:40.453Z,1.47
2019-06-07T20:17:08.217Z,2.60
2019-06-07T20:19:36.052Z,2.40
2019-06-07T20:22:05.386Z,1.77
2019-06-07T20:24:33.569Z,2.33
2019-06-07T20:27:02.336Z,1.97
2019-06-07T20:29:30.325Z,2.77
2019-06-07T20:31:58.302Z,3.00
2019-06-07T20:34:26.135Z,2.10
2019-06-07T20:36:54.130Z,2.43
2019-06-07T20:39:21.972Z,2.17
2019-06-07T20:41:49.781Z,1.20
2019-06-07T20:44:17.646Z,2.90
2019-06-07T20:46:45.455Z,2.00
2019-06-07T20:49:13.348Z,2.70
2019-06-07T20:51:41.177Z,1.87
2019-06-07T20:54:09.197Z,4.30
2019-06-07T20:56:37.097Z,2.07
2019-06-07T20:59:05.038Z,3.97
2019-06-07T21:01:33.056Z,4.07
2019-06-07T21:04:01.139Z,3.17
2019-06-07T21:06:29.074Z,1.77
2019-06-07T21:08:56.966Z,2.30
2019-06-07T21:11:24.844Z,2.07
2019-06-07T21:13:52.699Z,4.60
2019-06-07T21:16:20.525Z,4.33
2019-06-07T21:18:48.487Z,1.60
2019-06-07T21:21:16.391Z,2.67
2019-06-07T21:23:44.292Z,2.47
2019-06-07T21:26:12.189Z,4.57
2019-06-07T21:28:40.031Z,1.70
2019-06-07T21:31:10.456Z,2.17
2019-06-07T21:33:38.640Z,2.10
2019-06-07T21:36:07.808Z,2.30
2019-06-07T21:38:35.780Z,1.97
2019-06-07T21:41:04.173Z,2.60
2019-06-07T21:43:32.321Z,2.40
2019-06-07T21:46:05.510Z,2.20
2019-06-07T21:48:31.110Z,1.67
2019-06-07T21:50:58.995Z,2.10
2019-06-07T21:53:26.827Z,8.00
2019-06-07T21:55:54.783Z,2.63
2019-06-07T21:58:24.568Z,1.33
2019-06-07T22:01:15.238Z,4.57
2019-06-07T22:03:43.272Z,2.10
2019-06-07T22:06:11.704Z,1.20
2019-06-07T22:08:39.864Z,3.30
2019-06-07T22:11:08.206Z,2.63
2019-06-07T22:13:36.274Z,0.90
2019-06-07T22:16:04.172Z,2.40
2019-06-07T22:18:32.284Z,2.67
2019-06-07T22:21:00.140Z,2.00
2019-06-07T22:23:27.976Z,12.10
2019-06-07T22:25:55.901Z,1.40
2019-06-07T22:28:23.807Z,2.40
2019-06-07T22:30:51.678Z,1.67
2019-06-07T22:33:19.520Z,1.93
2019-06-07T22:35:47.346Z,3.63
2019-06-07T22:38:15.170Z,2.20
2019-06-07T22:40:42.963Z,1.83
2019-06-07T22:43:11.846Z,1.47
2019-06-07T22:45:39.904Z,1.77
2019-06-07T22:48:08.862Z,1.30
2019-06-07T22:50:36.783Z,1.77
2019-06-07T22:53:04.597Z,1.53
2019-06-07T22:55:32.435Z,1.27
2019-06-07T22:58:00.456Z,2.10
2019-06-07T23:00:30.081Z,4.10
2019-06-07T23:02:59.790Z,2.80
2019-06-07T23:05:27.689Z,3.47
2019-06-07T23:07:55.490Z,2.30
2019-06-07T23:10:23.424Z,2.60
2019-06-07T23:12:51.213Z,1.70
2019-06-07T23:15:20.758Z,2.10
2019-06-07T23:17:48.745Z,2.60
2019-06-07T23:20:18.051Z,2.10
2019-06-07T23:22:45.996Z,2.60
2019-06-07T23:25:17.655Z,1.40
2019-06-07T23:27:45.479Z,3.37
2019-06-07T23:30:16.520Z,0.97
2019-06-07T23:32:44.500Z,1.50
2019-06-07T23:35:14.889Z,3.20
2019-06-07T23:37:42.759Z,2.57
2019-06-07T23:40:14.965Z,1.33
2019-06-07T23:42:43.149Z,1.30
2019-06-07T23:45:11.998Z,4.20
2019-06-07T23:47:40.842Z,2.17
2019-06-07T23:50:09.542Z,1.57
2019-06-07T23:52:37.338Z,1.90
2019-06-07T23:55:08.421Z,2.43
2019-06-07T23:57:36.248Z,1.00
